createdAt,value
2018-07-31T00:00:05.418Z,91.60
2018-07-31T00:00:36.546Z,91.60
2018-07-31T00:01:07.670Z,91.60
2018-07-31T00:01:38.791Z,91.60
2018-07-31T00:02:09.912Z,91.60
2018-07-31T00:02:41.029Z,91.60
2018-07-31T00:03:12.149Z,91.60
2018-07-31T00:03:43.278Z,91.60
2018-07-31T00:04:14.406Z,91.60
2018-07-31T00:04:45.550Z,91.60
2018-07-31T00:05:16.674Z,91.60
2018-07-31T00:05:47.795Z,91.60
2018-07-31T00:06:18.923Z,91.60
2018-07-31T00:06:50.050Z,91.60
2018-07-31T00:07:53.497Z,91.60
2018-07-31T00:08:24.621Z,91.60
2018-07-31T00:08:55.776Z,91.60
2018-07-31T00:09:26.886Z,91.60
2018-07-31T00:09:58.388Z,91.60
2018-07-31T00:10:29.524Z,91.60
2018-07-31T00:11:00.663Z,91.60
2018-07-31T00:11:31.786Z,91.60
2018-07-31T00:12:02.906Z,91.60
2018-07-31T00:12:34.026Z,91.60
2018-07-31T00:13:05.146Z,91.60
2018-07-31T00:13:36.274Z,91.60
2018-07-31T00:14:38.914Z,91.60
2018-07-31T00:15:10.071Z,91.60
2018-07-31T00:15:41.194Z,91.60
2018-07-31T00:16:12.319Z,91.60
2018-07-31T00:16:43.444Z,91.60
2018-07-31T00:17:14.570Z,91.30
2018-07-31T00:17:45.689Z,91.30
2018-07-31T00:18:16.818Z,91.60
2018-07-31T00:18:47.950Z,91.60
2018-07-31T00:19:19.074Z,91.60
2018-07-31T00:19:50.226Z,91.60
2018-07-31T00:20:52.865Z,91.60
2018-07-31T00:21:23.986Z,91.60
2018-07-31T00:21:55.117Z,91.60
2018-07-31T00:22:26.237Z,91.60
2018-07-31T00:22:57.366Z,91.60
2018-07-31T00:23:28.485Z,91.60
2018-07-31T00:23:59.610Z,91.60
2018-07-31T00:24:30.737Z,91.60
2018-07-31T00:25:01.891Z,91.60
2018-07-31T00:25:33.014Z,91.60
2018-07-31T00:26:04.146Z,91.60
2018-07-31T00:26:35.279Z,91.60
2018-07-31T00:27:06.403Z,91.60
2018-07-31T00:27:37.525Z,91.60
2018-07-31T00:28:08.661Z,91.60
2018-07-31T00:28:39.790Z,91.60
2018-07-31T00:29:10.914Z,91.50
2018-07-31T00:29:42.050Z,91.50
2018-07-31T00:30:13.210Z,91.50
2018-07-31T00:30:44.337Z,91.50
2018-07-31T00:31:15.466Z,91.60
2018-07-31T00:31:46.594Z,91.60
2018-07-31T00:32:17.730Z,91.60
2018-07-31T00:32:48.858Z,91.60
2018-07-31T00:33:19.981Z,91.60
2018-07-31T00:33:51.113Z,91.60
2018-07-31T00:34:22.242Z,91.60
2018-07-31T00:34:53.425Z,91.60
2018-07-31T00:35:24.542Z,91.50
2018-07-31T00:35:55.666Z,91.50
2018-07-31T00:36:26.790Z,91.50
2018-07-31T00:36:57.918Z,91.60
2018-07-31T00:37:29.046Z,91.60
2018-07-31T00:38:00.178Z,91.60
2018-07-31T00:38:31.306Z,91.60
2018-07-31T00:39:02.436Z,91.60
2018-07-31T00:40:05.105Z,91.60
2018-07-31T00:40:36.235Z,91.60
2018-07-31T00:41:07.366Z,91.60
2018-07-31T00:41:38.494Z,91.60
2018-07-31T00:42:09.622Z,91.60
2018-07-31T00:42:40.742Z,91.60
2018-07-31T00:43:11.870Z,91.60
2018-07-31T00:43:42.998Z,92.00
2018-07-31T00:44:14.122Z,91.60
2018-07-31T00:44:45.250Z,91.60
2018-07-31T00:45:16.378Z,91.60
2018-07-31T00:45:47.506Z,91.60
2018-07-31T00:46:18.625Z,91.60
2018-07-31T00:46:49.754Z,91.60
2018-07-31T00:47:20.888Z,91.50
2018-07-31T00:47:52.010Z,91.50
2018-07-31T00:48:23.142Z,91.60
2018-07-31T00:48:54.267Z,91.60
2018-07-31T00:49:25.388Z,91.60
2018-07-31T00:49:56.511Z,91.60
2018-07-31T00:50:27.635Z,91.50
2018-07-31T00:50:58.763Z,91.50
2018-07-31T00:51:29.884Z,91.60
2018-07-31T00:52:01.006Z,91.60
2018-07-31T00:52:32.134Z,91.60
2018-07-31T00:53:03.259Z,91.60
2018-07-31T00:53:34.387Z,91.60
2018-07-31T00:54:05.513Z,91.60
2018-07-31T00:54:36.637Z,91.60
2018-07-31T00:55:07.790Z,91.60
2018-07-31T00:55:38.908Z,91.60
2018-07-31T00:56:10.034Z,91.60
2018-07-31T00:56:41.158Z,91.60
2018-07-31T00:57:12.286Z,91.60
2018-07-31T00:57:43.409Z,91.60
2018-07-31T00:58:46.071Z,91.60
2018-07-31T00:59:17.191Z,91.60
2018-07-31T00:59:48.313Z,91.40
2018-07-31T01:00:19.441Z,91.60
2018-07-31T01:00:50.565Z,91.60
2018-07-31T01:01:21.694Z,91.60
2018-07-31T01:01:52.822Z,91.60
2018-07-31T01:02:23.941Z,91.60
2018-07-31T01:02:55.066Z,91.60
2018-07-31T01:03:26.191Z,91.60
2018-07-31T01:03:57.317Z,91.60
2018-07-31T01:04:28.438Z,91.60
2018-07-31T01:04:59.562Z,91.60
2018-07-31T01:05:30.714Z,91.60
2018-07-31T01:06:01.846Z,91.60
2018-07-31T01:06:32.973Z,91.60
2018-07-31T01:07:04.098Z,91.60
2018-07-31T01:07:35.221Z,91.60
2018-07-31T01:08:06.358Z,91.50
2018-07-31T01:08:37.522Z,91.60
2018-07-31T01:09:08.645Z,91.60
2018-07-31T01:09:39.770Z,91.60
2018-07-31T01:10:10.897Z,91.60
2018-07-31T01:10:42.048Z,91.60
2018-07-31T01:11:13.178Z,91.60
2018-07-31T01:11:44.293Z,91.60
2018-07-31T01:12:15.413Z,91.60
2018-07-31T01:12:46.540Z,91.60
2018-07-31T01:13:17.666Z,91.60
2018-07-31T01:13:48.786Z,91.60
2018-07-31T01:14:19.905Z,91.60
2018-07-31T01:14:51.036Z,91.60
2018-07-31T01:15:22.194Z,91.60
2018-07-31T01:15:53.317Z,91.60
2018-07-31T01:16:24.441Z,91.50
2018-07-31T01:16:55.561Z,91.50
2018-07-31T01:17:26.687Z,91.60
2018-07-31T01:17:57.817Z,91.60
2018-07-31T01:18:28.950Z,91.60
2018-07-31T01:19:00.076Z,91.60
2018-07-31T01:19:31.206Z,91.60
2018-07-31T01:20:02.340Z,91.60
2018-07-31T01:20:33.499Z,91.60
2018-07-31T01:21:04.633Z,91.60
2018-07-31T01:21:35.765Z,91.60
2018-07-31T01:22:06.893Z,91.60
2018-07-31T01:22:38.018Z,91.60
2018-07-31T01:23:09.145Z,91.60
2018-07-31T01:23:40.269Z,91.60
2018-07-31T01:24:11.401Z,91.60
2018-07-31T01:24:42.529Z,91.60
2018-07-31T01:25:13.653Z,91.60
2018-07-31T01:25:44.805Z,91.60
2018-07-31T01:26:15.930Z,91.60
2018-07-31T01:26:47.057Z,91.60
2018-07-31T01:27:18.185Z,91.60
2018-07-31T01:27:49.310Z,91.60
2018-07-31T01:28:20.442Z,91.50
2018-07-31T01:28:51.569Z,91.60
2018-07-31T01:29:22.696Z,91.60
2018-07-31T01:29:53.823Z,91.60
2018-07-31T01:30:24.959Z,91.60
2018-07-31T01:30:56.116Z,91.50
2018-07-31T01:31:27.250Z,91.50
2018-07-31T01:31:58.375Z,91.60
2018-07-31T01:32:29.513Z,91.60
2018-07-31T01:33:00.638Z,91.60
2018-07-31T01:33:31.771Z,91.60
2018-07-31T01:34:02.891Z,91.60
2018-07-31T01:34:34.023Z,91.60
2018-07-31T01:35:36.699Z,91.60
2018-07-31T01:36:07.821Z,91.60
2018-07-31T01:36:38.941Z,91.60
2018-07-31T01:37:10.066Z,91.60
2018-07-31T01:37:41.186Z,91.70
2018-07-31T01:38:12.311Z,91.60
2018-07-31T01:38:43.438Z,91.60
2018-07-31T01:39:14.566Z,91.50
2018-07-31T01:39:45.694Z,91.60
2018-07-31T01:40:16.833Z,91.60
2018-07-31T01:40:47.986Z,91.60
2018-07-31T01:41:19.109Z,91.60
2018-07-31T01:41:50.229Z,91.60
2018-07-31T01:42:21.350Z,91.50
2018-07-31T01:42:52.478Z,91.50
2018-07-31T01:43:23.610Z,91.60
2018-07-31T01:43:54.737Z,91.60
2018-07-31T01:44:25.861Z,91.60
2018-07-31T01:44:56.989Z,91.60
2018-07-31T01:45:28.112Z,91.60
2018-07-31T01:45:59.305Z,91.60
2018-07-31T01:46:30.413Z,91.60
2018-07-31T01:47:01.547Z,91.60
2018-07-31T01:47:32.676Z,91.60
2018-07-31T01:48:03.798Z,91.60
2018-07-31T01:48:34.922Z,91.60
2018-07-31T01:49:06.051Z,91.60
2018-07-31T01:49:37.170Z,91.60
2018-07-31T01:50:08.289Z,91.60
2018-07-31T01:50:39.462Z,91.60
2018-07-31T01:51:42.118Z,91.60
2018-07-31T01:52:13.242Z,91.60
2018-07-31T01:52:44.365Z,91.60
2018-07-31T01:53:15.487Z,91.60
2018-07-31T01:53:46.613Z,91.60
2018-07-31T01:54:17.742Z,91.50
2018-07-31T01:54:48.862Z,91.50
2018-07-31T01:55:19.988Z,91.50
2018-07-31T01:55:51.137Z,91.50
2018-07-31T01:56:22.262Z,91.50
2018-07-31T01:56:53.388Z,91.60
2018-07-31T01:57:24.510Z,91.60
2018-07-31T01:57:55.637Z,91.50
2018-07-31T01:58:26.764Z,91.60
2018-07-31T01:58:57.910Z,91.60
2018-07-31T01:59:29.092Z,91.60
2018-07-31T02:00:00.187Z,91.60
2018-07-31T02:00:31.310Z,91.50
2018-07-31T02:01:02.462Z,91.50
2018-07-31T02:01:33.590Z,91.50
2018-07-31T02:02:04.714Z,91.50
2018-07-31T02:02:35.854Z,91.50
2018-07-31T02:03:06.978Z,91.40
2018-07-31T02:03:38.101Z,91.40
2018-07-31T02:04:09.239Z,91.50
2018-07-31T02:04:40.361Z,91.60
2018-07-31T02:05:11.490Z,91.50
2018-07-31T02:06:14.198Z,91.50
2018-07-31T02:06:45.340Z,91.50
2018-07-31T02:07:16.474Z,91.50
2018-07-31T02:07:47.603Z,91.50
2018-07-31T02:08:18.725Z,91.50
2018-07-31T02:08:49.849Z,91.50
2018-07-31T02:09:20.979Z,91.50
2018-07-31T02:09:52.112Z,91.50
2018-07-31T02:10:23.240Z,91.40
2018-07-31T02:10:54.389Z,91.40
2018-07-31T02:11:25.513Z,91.50
2018-07-31T02:11:56.633Z,91.50
2018-07-31T02:12:27.759Z,91.30
2018-07-31T02:12:58.890Z,91.30
2018-07-31T02:13:30.010Z,91.40
2018-07-31T02:14:01.142Z,91.50
2018-07-31T02:14:32.268Z,91.40
2018-07-31T02:15:03.402Z,91.40
2018-07-31T02:15:34.531Z,91.40
2018-07-31T02:16:05.698Z,91.40
2018-07-31T02:16:36.822Z,91.40
2018-07-31T02:17:07.958Z,91.40
2018-07-31T02:17:39.086Z,91.40
2018-07-31T02:18:10.210Z,91.40
2018-07-31T02:18:41.345Z,91.50
2018-07-31T02:19:12.470Z,91.50
2018-07-31T02:19:43.594Z,91.50
2018-07-31T02:20:14.718Z,91.50
2018-07-31T02:20:45.846Z,91.50
2018-07-31T02:21:16.997Z,91.40
2018-07-31T02:21:48.126Z,91.40
2018-07-31T02:22:19.249Z,91.40
2018-07-31T02:22:50.374Z,91.40
2018-07-31T02:23:21.510Z,91.40
2018-07-31T02:23:52.634Z,91.80
2018-07-31T02:24:23.782Z,91.40
2018-07-31T02:24:54.901Z,91.50
2018-07-31T02:25:26.027Z,91.40
2018-07-31T02:25:57.197Z,91.40
2018-07-31T02:26:28.321Z,91.50
2018-07-31T02:26:59.448Z,91.50
2018-07-31T02:27:30.578Z,91.50
2018-07-31T02:28:01.749Z,91.50
2018-07-31T02:28:32.937Z,91.40
2018-07-31T02:29:04.010Z,91.40
2018-07-31T02:29:35.134Z,91.30
2018-07-31T02:30:06.255Z,91.30
2018-07-31T02:30:37.382Z,91.40
2018-07-31T02:31:08.544Z,91.40
2018-07-31T02:31:39.677Z,91.40
2018-07-31T02:32:10.806Z,91.40
2018-07-31T02:32:41.937Z,91.40
2018-07-31T02:33:13.058Z,91.40
2018-07-31T02:33:44.183Z,91.40
2018-07-31T02:34:15.303Z,91.40
2018-07-31T02:34:46.422Z,91.40
2018-07-31T02:35:17.544Z,91.40
2018-07-31T02:35:48.673Z,91.40
2018-07-31T02:36:19.817Z,91.40
2018-07-31T02:36:50.951Z,91.40
2018-07-31T02:37:22.084Z,91.40
2018-07-31T02:37:53.205Z,91.40
2018-07-31T02:38:24.332Z,91.30
2018-07-31T02:38:55.469Z,91.30
2018-07-31T02:39:26.602Z,91.30
2018-07-31T02:39:57.733Z,91.30
2018-07-31T02:40:28.862Z,91.30
2018-07-31T02:40:59.995Z,91.40
2018-07-31T02:41:31.150Z,91.40
2018-07-31T02:42:02.272Z,91.40
2018-07-31T02:42:33.404Z,91.40
2018-07-31T02:43:04.542Z,91.40
2018-07-31T02:43:35.669Z,91.40
2018-07-31T02:44:06.795Z,91.40
2018-07-31T02:44:37.921Z,91.40
2018-07-31T02:45:09.051Z,91.30
2018-07-31T02:45:40.186Z,91.30
2018-07-31T02:46:11.350Z,91.30
2018-07-31T02:46:42.495Z,91.30
2018-07-31T02:47:13.625Z,91.40
2018-07-31T02:47:44.754Z,91.40
2018-07-31T02:48:15.887Z,91.40
2018-07-31T02:48:47.018Z,91.30
2018-07-31T02:49:18.140Z,91.70
2018-07-31T02:49:49.267Z,91.30
2018-07-31T02:50:20.398Z,91.20
2018-07-31T02:50:51.519Z,91.30
2018-07-31T02:51:22.681Z,91.30
2018-07-31T02:51:53.808Z,91.40
2018-07-31T02:52:24.949Z,91.40
2018-07-31T02:52:56.078Z,91.40
2018-07-31T02:53:27.201Z,91.40
2018-07-31T02:53:58.330Z,91.30
2018-07-31T02:54:29.459Z,91.30
2018-07-31T02:55:00.573Z,91.30
2018-07-31T02:55:31.693Z,91.30
2018-07-31T02:56:02.815Z,91.30
2018-07-31T02:56:33.971Z,91.30
2018-07-31T02:57:05.108Z,91.30
2018-07-31T02:57:36.235Z,91.30
2018-07-31T02:58:07.417Z,91.30
2018-07-31T02:58:38.501Z,91.30
2018-07-31T02:59:09.627Z,91.30
2018-07-31T02:59:40.756Z,91.30
2018-07-31T03:00:11.888Z,91.30
2018-07-31T03:00:43.012Z,91.30
2018-07-31T03:01:14.177Z,91.30
2018-07-31T03:01:45.306Z,91.30
2018-07-31T03:02:16.433Z,91.30
2018-07-31T03:02:47.574Z,91.20
2018-07-31T03:03:18.698Z,91.20
2018-07-31T03:03:49.832Z,91.30
2018-07-31T03:04:20.953Z,91.40
2018-07-31T03:04:52.079Z,91.40
2018-07-31T03:05:23.214Z,91.40
2018-07-31T03:05:54.342Z,91.40
2018-07-31T03:06:25.495Z,91.40
2018-07-31T03:06:56.616Z,91.30
2018-07-31T03:07:27.746Z,91.30
2018-07-31T03:07:58.933Z,91.60
2018-07-31T03:08:30.006Z,91.30
2018-07-31T03:09:01.131Z,91.30
2018-07-31T03:09:32.266Z,91.30
2018-07-31T03:10:03.389Z,91.30
2018-07-31T03:10:34.511Z,91.60
2018-07-31T03:11:05.642Z,91.30
2018-07-31T03:11:36.799Z,91.30
2018-07-31T03:12:07.933Z,91.30
2018-07-31T03:12:39.054Z,91.20
2018-07-31T03:13:10.188Z,91.20
2018-07-31T03:13:41.311Z,91.20
2018-07-31T03:14:12.431Z,91.30
2018-07-31T03:14:43.549Z,91.30
2018-07-31T03:15:14.670Z,91.10
2018-07-31T03:15:45.796Z,91.20
2018-07-31T03:16:16.926Z,91.20
2018-07-31T03:16:48.051Z,91.20
2018-07-31T03:17:19.173Z,91.20
2018-07-31T03:17:50.298Z,91.20
2018-07-31T03:18:21.426Z,91.20
2018-07-31T03:18:52.545Z,91.20
2018-07-31T03:19:23.678Z,91.10
2018-07-31T03:19:54.810Z,91.20
2018-07-31T03:20:25.942Z,91.30
2018-07-31T03:20:57.064Z,91.20
2018-07-31T03:21:28.217Z,91.20
2018-07-31T03:21:59.346Z,91.20
2018-07-31T03:22:30.479Z,91.20
2018-07-31T03:23:01.610Z,91.20
2018-07-31T03:23:32.738Z,91.20
2018-07-31T03:24:03.857Z,91.20
2018-07-31T03:24:34.990Z,91.20
2018-07-31T03:25:06.118Z,91.20
2018-07-31T03:25:37.241Z,91.20
2018-07-31T03:26:08.366Z,91.10
2018-07-31T03:26:39.493Z,91.20
2018-07-31T03:27:10.632Z,91.10
2018-07-31T03:27:41.761Z,91.20
2018-07-31T03:28:12.924Z,91.20
2018-07-31T03:28:44.034Z,91.20
2018-07-31T03:29:15.162Z,91.20
2018-07-31T03:29:46.441Z,91.20
2018-07-31T03:30:17.573Z,91.30
2018-07-31T03:30:48.702Z,91.20
2018-07-31T03:31:19.825Z,91.30
2018-07-31T03:31:50.985Z,91.30
2018-07-31T03:32:22.105Z,91.30
2018-07-31T03:32:53.226Z,91.20
2018-07-31T03:33:24.354Z,91.20
2018-07-31T03:33:55.478Z,91.10
2018-07-31T03:34:26.601Z,91.20
2018-07-31T03:34:57.722Z,91.20
2018-07-31T03:35:28.847Z,91.20
2018-07-31T03:35:59.974Z,91.20
2018-07-31T03:36:31.100Z,91.20
2018-07-31T03:37:02.249Z,91.20
2018-07-31T03:37:33.374Z,91.20
2018-07-31T03:38:04.498Z,91.20
2018-07-31T03:38:35.613Z,91.20
2018-07-31T03:39:06.743Z,91.40
2018-07-31T03:39:37.866Z,91.20
2018-07-31T03:40:08.993Z,91.20
2018-07-31T03:40:40.126Z,91.60
2018-07-31T03:41:11.254Z,91.20
2018-07-31T03:41:42.413Z,91.30
2018-07-31T03:42:13.542Z,91.20
2018-07-31T03:42:44.662Z,91.20
2018-07-31T03:43:15.785Z,91.50
2018-07-31T03:43:46.910Z,91.10
2018-07-31T03:44:18.051Z,91.20
2018-07-31T03:44:49.177Z,91.10
2018-07-31T03:45:20.302Z,91.10
2018-07-31T03:45:51.427Z,91.20
2018-07-31T03:46:22.555Z,91.20
2018-07-31T03:46:53.715Z,91.10
2018-07-31T03:47:24.858Z,91.10
2018-07-31T03:47:55.981Z,91.10
2018-07-31T03:48:27.109Z,91.10
2018-07-31T03:48:58.250Z,91.10
2018-07-31T03:49:29.373Z,91.20
2018-07-31T03:50:00.526Z,91.20
2018-07-31T03:50:31.633Z,91.20
2018-07-31T03:51:02.758Z,91.20
2018-07-31T03:52:05.438Z,91.20
2018-07-31T03:52:36.562Z,90.90
2018-07-31T03:53:07.685Z,91.10
2018-07-31T03:53:38.805Z,91.10
2018-07-31T03:54:09.930Z,91.20
2018-07-31T03:54:41.054Z,91.10
2018-07-31T03:55:12.179Z,91.10
2018-07-31T03:55:43.302Z,91.10
2018-07-31T03:56:14.453Z,91.10
2018-07-31T03:56:45.681Z,91.20
2018-07-31T03:57:16.802Z,91.20
2018-07-31T03:57:47.925Z,90.80
2018-07-31T03:58:19.050Z,91.10
2018-07-31T03:58:50.177Z,91.20
2018-07-31T03:59:21.309Z,91.20
2018-07-31T03:59:52.438Z,91.20
2018-07-31T04:00:23.569Z,91.20
2018-07-31T04:00:54.698Z,91.20
2018-07-31T04:01:25.826Z,91.20
2018-07-31T04:01:56.978Z,91.10
2018-07-31T04:02:28.102Z,91.10
2018-07-31T04:02:59.230Z,91.10
2018-07-31T04:03:30.358Z,91.20
2018-07-31T04:04:01.486Z,91.10
2018-07-31T04:04:32.664Z,91.00
2018-07-31T04:05:03.767Z,91.40
2018-07-31T04:05:34.949Z,91.10
2018-07-31T04:06:06.037Z,91.10
2018-07-31T04:06:37.161Z,91.10
2018-07-31T04:07:08.316Z,91.00
2018-07-31T04:07:39.448Z,91.00
2018-07-31T04:08:10.578Z,91.10
2018-07-31T04:08:41.698Z,91.10
2018-07-31T04:09:12.826Z,91.10
2018-07-31T04:09:43.950Z,91.20
2018-07-31T04:10:15.075Z,91.10
2018-07-31T04:10:46.197Z,91.10
2018-07-31T04:11:17.323Z,91.10
2018-07-31T04:11:48.451Z,91.10
2018-07-31T04:12:19.609Z,91.20
2018-07-31T04:12:50.740Z,91.20
2018-07-31T04:13:21.868Z,91.20
2018-07-31T04:13:52.991Z,91.20
2018-07-31T04:14:24.109Z,91.20
2018-07-31T04:14:55.237Z,91.20
2018-07-31T04:15:26.363Z,91.20
2018-07-31T04:15:57.490Z,91.20
2018-07-31T04:16:28.622Z,91.20
2018-07-31T04:16:59.787Z,91.20
2018-07-31T04:17:30.918Z,91.10
2018-07-31T04:18:02.043Z,91.00
2018-07-31T04:18:33.173Z,91.10
2018-07-31T04:19:04.297Z,91.10
2018-07-31T04:19:35.426Z,91.00
2018-07-31T04:20:06.548Z,91.00
2018-07-31T04:20:37.665Z,91.00
2018-07-31T04:21:08.787Z,91.10
2018-07-31T04:21:39.915Z,91.20
2018-07-31T04:22:11.469Z,91.20
2018-07-31T04:22:42.903Z,91.20
2018-07-31T04:23:14.412Z,91.20
2018-07-31T04:23:45.881Z,91.20
2018-07-31T04:24:18.306Z,91.20
2018-07-31T04:24:49.858Z,91.10
2018-07-31T04:25:21.719Z,91.10
2018-07-31T04:25:53.254Z,91.10
2018-07-31T04:26:24.593Z,91.20
2018-07-31T04:26:56.130Z,91.10
2018-07-31T04:27:29.093Z,91.10
2018-07-31T04:28:00.601Z,91.10
2018-07-31T04:28:32.082Z,91.20
2018-07-31T04:29:03.358Z,91.20
2018-07-31T04:29:34.510Z,91.30
2018-07-31T04:30:05.679Z,91.30
2018-07-31T04:30:36.774Z,91.20
2018-07-31T04:31:07.902Z,91.30
2018-07-31T04:31:39.034Z,91.30
2018-07-31T04:32:10.194Z,91.30
2018-07-31T04:32:41.321Z,91.30
2018-07-31T04:33:12.451Z,91.30
2018-07-31T04:33:43.590Z,91.30
2018-07-31T04:34:14.716Z,91.30
2018-07-31T04:34:45.839Z,91.30
2018-07-31T04:35:16.962Z,91.30
2018-07-31T04:35:48.111Z,91.30
2018-07-31T04:36:19.362Z,91.30
2018-07-31T04:36:50.386Z,91.30
2018-07-31T04:37:21.550Z,91.30
2018-07-31T04:37:52.690Z,91.20
2018-07-31T04:38:23.812Z,91.20
2018-07-31T04:38:54.941Z,91.20
2018-07-31T04:39:26.075Z,91.20
2018-07-31T04:39:57.211Z,91.30
2018-07-31T04:40:28.339Z,91.30
2018-07-31T04:40:59.462Z,91.30
2018-07-31T04:41:30.590Z,91.30
2018-07-31T04:42:01.719Z,91.30
2018-07-31T04:42:32.870Z,91.20
2018-07-31T04:43:04.000Z,91.30
2018-07-31T04:43:35.131Z,91.30
2018-07-31T04:44:06.254Z,91.20
2018-07-31T04:44:37.387Z,91.30
2018-07-31T04:45:08.510Z,91.20
2018-07-31T04:45:39.634Z,91.60
2018-07-31T04:46:10.759Z,91.40
2018-07-31T04:46:41.886Z,91.30
2018-07-31T04:47:13.013Z,91.30
2018-07-31T04:47:44.157Z,91.30
2018-07-31T04:48:15.282Z,91.30
2018-07-31T04:48:46.415Z,91.30
2018-07-31T04:49:17.533Z,91.20
2018-07-31T04:49:48.663Z,91.30
2018-07-31T04:50:19.865Z,91.70
2018-07-31T04:50:50.939Z,91.30
2018-07-31T04:51:22.066Z,91.30
2018-07-31T04:51:53.198Z,91.30
2018-07-31T04:52:24.367Z,91.30
2018-07-31T04:52:55.494Z,91.30
2018-07-31T04:53:26.617Z,91.30
2018-07-31T04:53:57.749Z,91.30
2018-07-31T04:54:28.873Z,91.30
2018-07-31T04:55:00.007Z,91.30
2018-07-31T04:55:31.135Z,91.20
2018-07-31T04:56:02.258Z,91.20
2018-07-31T04:56:33.382Z,91.30
2018-07-31T04:57:04.509Z,91.30
2018-07-31T04:57:35.666Z,91.30
2018-07-31T04:58:06.799Z,91.30
2018-07-31T04:58:37.918Z,91.30
2018-07-31T04:59:09.050Z,91.30
2018-07-31T04:59:40.175Z,91.20
2018-07-31T05:00:11.294Z,91.20
2018-07-31T05:00:42.422Z,91.50
2018-07-31T05:01:13.558Z,91.20
2018-07-31T05:02:16.205Z,91.30
2018-07-31T05:02:47.349Z,91.50
2018-07-31T05:03:18.469Z,91.30
2018-07-31T05:03:49.602Z,91.30
2018-07-31T05:04:52.257Z,91.30
2018-07-31T05:05:23.378Z,91.30
2018-07-31T05:05:54.505Z,91.20
2018-07-31T05:06:25.631Z,91.10
2018-07-31T05:06:56.760Z,91.10
2018-07-31T05:07:27.881Z,91.20
2018-07-31T05:07:59.034Z,91.20
2018-07-31T05:08:30.158Z,91.20
2018-07-31T05:09:01.285Z,91.20
2018-07-31T05:09:32.406Z,91.30
2018-07-31T05:10:03.530Z,91.30
2018-07-31T05:10:34.690Z,91.30
2018-07-31T05:11:05.910Z,91.30
2018-07-31T05:11:37.001Z,91.20
2018-07-31T05:12:08.155Z,91.10
2018-07-31T05:12:39.323Z,91.20
2018-07-31T05:13:10.478Z,91.30
2018-07-31T05:13:41.658Z,91.20
2018-07-31T05:14:13.076Z,91.60
2018-07-31T05:14:44.326Z,91.20
2018-07-31T05:15:15.724Z,91.20
2018-07-31T05:15:46.930Z,91.20
2018-07-31T05:16:18.274Z,91.20
2018-07-31T05:16:49.564Z,91.30
2018-07-31T05:17:20.874Z,91.30
2018-07-31T05:17:52.152Z,91.30
2018-07-31T05:18:54.863Z,91.30
2018-07-31T05:19:26.213Z,91.30
2018-07-31T05:19:57.540Z,91.20
2018-07-31T05:20:28.867Z,91.10
2018-07-31T05:21:00.171Z,91.10
2018-07-31T05:21:31.397Z,91.10
2018-07-31T05:22:02.705Z,91.20
2018-07-31T05:22:34.098Z,91.20
2018-07-31T05:23:05.320Z,91.30
2018-07-31T05:23:36.701Z,91.30
2018-07-31T05:24:08.042Z,91.30
2018-07-31T05:24:39.398Z,91.30
2018-07-31T05:25:10.717Z,91.30
2018-07-31T05:25:41.944Z,91.30
2018-07-31T05:26:13.138Z,91.30
2018-07-31T05:26:44.332Z,91.30
2018-07-31T05:27:15.915Z,91.30
2018-07-31T05:27:47.195Z,91.30
2018-07-31T05:28:18.550Z,91.30
2018-07-31T05:28:49.876Z,91.30
2018-07-31T05:29:21.070Z,91.30
2018-07-31T05:29:52.403Z,91.20
2018-07-31T05:30:23.533Z,91.30
2018-07-31T05:30:54.824Z,91.30
2018-07-31T05:31:26.245Z,91.30
2018-07-31T05:31:57.565Z,91.30
2018-07-31T05:32:28.948Z,91.30
2018-07-31T05:33:00.095Z,91.30
2018-07-31T05:33:31.253Z,91.30
2018-07-31T05:34:02.561Z,91.30
2018-07-31T05:34:33.879Z,91.30
2018-07-31T05:35:05.022Z,91.30
2018-07-31T05:35:36.274Z,91.30
2018-07-31T05:36:07.539Z,91.20
2018-07-31T05:36:38.800Z,91.20
2018-07-31T05:37:10.488Z,91.20
2018-07-31T05:37:41.797Z,91.30
2018-07-31T05:38:13.146Z,91.30
2018-07-31T05:38:44.499Z,91.30
2018-07-31T05:39:15.837Z,91.30
2018-07-31T05:39:47.060Z,91.30
2018-07-31T05:40:50.308Z,91.30
2018-07-31T05:41:21.494Z,91.30
2018-07-31T05:41:52.798Z,91.30
2018-07-31T05:42:24.139Z,91.30
2018-07-31T05:42:55.462Z,91.30
2018-07-31T05:43:26.622Z,91.30
2018-07-31T05:43:57.897Z,91.30
2018-07-31T05:44:29.101Z,91.30
2018-07-31T05:45:00.350Z,91.30
2018-07-31T05:45:31.650Z,91.30
2018-07-31T05:46:02.989Z,91.30
2018-07-31T05:46:34.314Z,91.30
2018-07-31T05:47:05.604Z,91.30
2018-07-31T05:47:36.885Z,91.30
2018-07-31T05:48:39.765Z,91.20
2018-07-31T05:49:11.042Z,91.20
2018-07-31T05:49:42.399Z,91.30
2018-07-31T05:50:13.713Z,91.30
2018-07-31T05:50:45.024Z,91.30
2018-07-31T05:51:16.342Z,91.30
2018-07-31T05:51:47.564Z,91.40
2018-07-31T05:52:18.731Z,91.40
2018-07-31T05:52:50.110Z,91.40
2018-07-31T05:53:21.447Z,91.40
2018-07-31T05:53:52.690Z,91.40
2018-07-31T05:54:23.966Z,91.40
2018-07-31T05:54:55.654Z,91.30
2018-07-31T05:55:26.829Z,91.30
2018-07-31T05:55:58.164Z,91.80
2018-07-31T05:56:29.333Z,91.40
2018-07-31T05:57:00.920Z,91.30
2018-07-31T05:57:32.312Z,91.30
2018-07-31T05:58:03.662Z,91.30
2018-07-31T05:58:35.429Z,91.30
2018-07-31T05:59:07.387Z,91.30
2018-07-31T05:59:38.725Z,91.30
2018-07-31T06:00:10.051Z,91.40
2018-07-31T06:00:41.402Z,91.40
2018-07-31T06:01:12.709Z,91.40
2018-07-31T06:01:44.055Z,91.40
2018-07-31T06:02:15.451Z,91.40
2018-07-31T06:02:46.712Z,91.40
2018-07-31T06:03:17.919Z,91.30
2018-07-31T06:03:49.040Z,91.30
2018-07-31T06:04:20.278Z,91.30
2018-07-31T06:04:51.612Z,91.30
2018-07-31T06:05:22.846Z,91.30
2018-07-31T06:05:54.118Z,91.30
2018-07-31T06:06:25.471Z,91.30
2018-07-31T06:06:56.750Z,91.30
2018-07-31T06:07:27.988Z,91.30
2018-07-31T06:07:59.303Z,91.30
2018-07-31T06:08:30.953Z,91.30
2018-07-31T06:09:02.174Z,91.30
2018-07-31T06:09:33.403Z,91.30
2018-07-31T06:10:04.525Z,91.30
2018-07-31T06:10:35.704Z,91.30
2018-07-31T06:11:06.862Z,91.30
2018-07-31T06:11:38.078Z,91.30
2018-07-31T06:12:09.232Z,91.30
2018-07-31T06:12:40.602Z,91.30
2018-07-31T06:13:11.998Z,91.30
2018-07-31T06:13:43.234Z,91.30
2018-07-31T06:14:14.551Z,91.30
2018-07-31T06:14:45.958Z,91.30
2018-07-31T06:15:17.260Z,91.30
2018-07-31T06:15:48.556Z,91.30
2018-07-31T06:16:19.816Z,91.30
2018-07-31T06:16:51.104Z,91.30
2018-07-31T06:17:22.444Z,91.30
2018-07-31T06:17:53.666Z,91.30
2018-07-31T06:18:24.890Z,91.30
2018-07-31T06:18:56.184Z,91.30
2018-07-31T06:19:27.346Z,91.30
2018-07-31T06:19:58.462Z,91.30
2018-07-31T06:20:29.723Z,91.30
2018-07-31T06:21:00.969Z,91.30
2018-07-31T06:21:32.298Z,91.30
2018-07-31T06:22:35.348Z,91.30
2018-07-31T06:23:06.552Z,91.30
2018-07-31T06:23:37.836Z,91.30
2018-07-31T06:24:08.998Z,91.30
2018-07-31T06:24:40.342Z,91.30
2018-07-31T06:25:11.610Z,91.30
2018-07-31T06:25:42.875Z,91.30
2018-07-31T06:26:13.938Z,91.30
2018-07-31T06:26:45.095Z,91.30
2018-07-31T06:27:16.460Z,91.30
2018-07-31T06:27:47.718Z,91.30
2018-07-31T06:28:18.868Z,91.30
2018-07-31T06:28:50.082Z,91.30
2018-07-31T06:29:21.256Z,91.30
2018-07-31T06:29:52.461Z,91.30
2018-07-31T06:30:23.829Z,91.30
2018-07-31T06:30:55.166Z,91.30
2018-07-31T06:31:26.589Z,91.30
2018-07-31T06:31:57.926Z,91.30
2018-07-31T06:32:29.281Z,91.30
2018-07-31T06:33:00.538Z,91.30
2018-07-31T06:33:31.933Z,91.30
2018-07-31T06:34:03.141Z,91.30
2018-07-31T06:34:34.440Z,91.30
2018-07-31T06:35:05.873Z,91.30
2018-07-31T06:35:37.278Z,91.30
2018-07-31T06:36:08.555Z,91.30
2018-07-31T06:36:39.718Z,91.60
2018-07-31T06:37:10.842Z,91.30
2018-07-31T06:37:41.970Z,91.30
2018-07-31T06:38:13.105Z,91.30
2018-07-31T06:38:44.255Z,91.30
2018-07-31T06:39:15.377Z,91.30
2018-07-31T06:39:46.511Z,91.30
2018-07-31T06:40:17.638Z,91.30
2018-07-31T06:40:48.761Z,91.30
2018-07-31T06:41:19.890Z,91.30
2018-07-31T06:41:51.018Z,91.30
2018-07-31T06:42:22.146Z,91.30
2018-07-31T06:42:53.270Z,91.30
2018-07-31T06:43:24.412Z,91.30
2018-07-31T06:43:55.567Z,91.30
2018-07-31T06:44:26.690Z,91.30
2018-07-31T06:44:57.814Z,91.30
2018-07-31T06:45:28.935Z,91.30
2018-07-31T06:46:00.060Z,91.40
2018-07-31T06:46:31.195Z,91.30
2018-07-31T06:47:02.326Z,91.30
2018-07-31T06:47:33.458Z,91.30
2018-07-31T06:48:04.582Z,91.30
2018-07-31T06:48:35.733Z,91.30
2018-07-31T06:49:06.858Z,91.30